KPSM/PSM METAR and TAF weather

Enter ICAO airport designator
Station Type Date Time Source
KPSM METAR 2019/06/26 15:26 UTC NOAA

KPSM 261526Z 04006KT 10SM FEW009 BKN020 22/18 A3000 RMK AO2A SLP161


Station Type Date Time Source
KPSM Decoded METAR 2019/06/26 15:26 UTC NOAA

Pease Air Force Base / Portsmouth, NH, United States (KPSM) 43-05N 070-49W
Jun 26, 2019 - 11:26 AM EDT / 2019.06.26 1526 UTC
Wind: from the NE (040 degrees) at 7 MPH (6 KT):0
Visibility: 10 mile(s):0
Sky conditions: mostly cloudy
Temperature: 71 F (22 C)
Dew Point: 64 F (18 C)
Relative Humidity: 78%
Pressure (altimeter): 30 in. Hg (1015 hPa)
ob: KPSM 261526Z 04006KT 10SM FEW009 BKN020 22/18 A3000 RMK AO2A SLP161
cycle: 15

Station Type Date Time Source
KPSM TAF 2019/06/26 13:18 UTC NOAA

TAF
AMD KPSM 261314Z 2613/2712 33004KT P6SM BKN015
FM261600 08006KT P6SM FEW050
FM270100 10004KT 4SM BR OVC007

Example: see airport list